Impacts TAF Board INFO
FOR SITUATIONAL AWARENESS. NOT TO BE USED FOR FLIGHT PLANNING PURPOSES.
IDs:

KPIT - Pittsburgh Intl, PA, US

Issued at 0824 UTC 21 Jan 2017
Updated at 0830 UTC 21 Jan 2017
Potential Impact None Slight Moderate High
Time0824Z 21/09Z 21/10Z 21/11Z 21/12Z 21/13Z 21/14Z 21/15Z 21/16Z 21/17Z 21/18Z 21/19Z 21/20Z 21/21Z
Type OBS PRVL
  [TEMP]  
PRVL
  [TEMP]  
PRVL PRVL PRVL PRVL PRVL PRVL PRVL PRVL PRVL PRVL PRVL
VIS 1 1
  [0.5]  
1
  [0.5]  
1 1 1 1 1 >6 >6 >6 >6 >6 >6
CIG 43 --
  [1]  
--
  [1]  
-- -- -- -- -- 40 40 40 40 40 40
Cover BKN SCT
  [OVX]  
SCT
  [OVX]  
SCT SCT SCT SCT SCT BKN BKN BKN BKN BKN BKN
FltCat IFR IFR
  [LIFR]  
IFR
  [LIFR]  
IFR IFR IFR IFR IFR VFR VFR VFR VFR VFR VFR
WX BR BR
  [FG]  
BR
  [FG]  
BR BR BR BR BR -- -- -- -- -- --
WDir VRB VRB
[VRB]
VRB
[VRB]
VRB VRB VRB VRB VRB 170 170 170 170 170 170
WSpd 0 0
  [0]  
0
  [0]  
0 0 0 0 0 4 4 4 4 4 4
WGst -- --
  [--]  
--
  [--]  
-- -- -- -- -- -- -- -- -- -- --

Raw TAF
KPIT 210824Z 2108/2212 00000KT 1SM BR SCT001 SCT120
  TEMPO 2108/2111 1/2SM FG VV001
  FM211600 17004KT P6SM BKN040
  FM220800 11004KT P6SM BKN035


Raw METAR
KPIT 210824Z 00000KT 1SM R28R/2200V4000FT BR FEW000 BKN043 05/05 A2982 RMK AO2 FG FEW000 T00500050
KPIT 210807Z 00000KT 1/2SM R28R/1800V2000FT FG SCT000 04/04 A2982 RMK AO2 FG SCT000 VIS NW-N 1 T00390039
KPIT 210751Z 00000KT 1SM R28R/1200V1600FT BR FEW000 FEW130 06/06 A2982 RMK AO2 SLP109 FG FEW000 T00610061
KPIT 210744Z 00000KT 1SM R28R/1200V1600FT BR FEW000 FEW130 06/06 A2982 RMK AO2 FG FEW000 T00610061
KPIT 210732Z 00000KT 3/4SM R28R/1600V2800FT BR FEW000 FEW130 06/06 A2982 RMK AO2 FG FEW000 T00610061
KPIT 210719Z 00000KT 1SM R28R/1200V1400FT BR FEW000 06/06 A2981 RMK AO2 FG FEW000 T00560056
KPIT 210651Z 00000KT 6SM R28R/0600V1200FT BR FEW000 06/06 A2981 RMK AO2 SLP104 FG FEW000 T00560056
KPIT 210640Z 00000KT 8SM R28R/1000V1600FT FEW000 07/07 A2981 RMK AO2 FG FEW000 T00670067
KPIT 210551Z 00000KT 10SM R28R/2000VP6000FT MIFG FEW250 07/07 A2981 RMK AO2 SLP104 T00720072 10122 20072 50004

METAR Board
Radar Display
Forecast Discussion

FOR SITUATIONAL AWARENESS. NOT TO BE USED FOR FLIGHT PLANNING PURPOSES.

Page loaded:  08:30 UTC  |   12:30 AM Pacific  |   01:30 AM Mountain  |   02:30 AM Central  |   03:30 AM Eastern

 

ADVISORIES

FORECASTS

FORECASTS

OBSERVATIONS

USER TOOLS

ABOUT US